Thunder radar more information blitzortung!


Radar de pluja more information rain snow radar


Visita la nostra xarxa de llocs de meteo:

Template documentation
and downloads

And another site



No particular awareness of the weather is required.    There are no Weather-warnings

Pagina Historial Weather Underground text

Diari Resum Setembre 5, 2017 Unitats:  Mètric    Imperial   Tant
« Previous Dia
SegĂźent Dia »
Diari Setmana Mensual Anual Personalitzada
  Maxima: Minima: Media:
Temperatura: 32.3 °C 16.6 °C 25.9 °C
Punt de rosada: 18.7 °C 13.9 °C 16.7 °C
Humitat: 86 % 38 % 60 %
Wind Speed: 20.4 km/h 0.0 km/h 6.6 km/h
RĂ fegues de vent: 20.4 km/h - -
Vent:- - SW
Pression baro: 1020.9 hPa 1016.8 hPa -
Precipitacions: 0.0 mm    
Historical Graphs
 
 
Dades de taula per Setembre 5, 2017
Temps Temperatura Punt de rosada Pression baro Vent Wind Speed RĂ fegues de vent Humitat Rainfall Rate (Hourly)
00:00 18.1 °C 15.0 °C 1019.9 hPa Calm   1.6 km/h 82 % 0.0 mm
00:02 20.4 °C 15.2 °C 1019.9 hPa Calm     72 % 0.0 mm
00:10 18.1 °C 15.0 °C 1019.9 hPa NNW 1.6 km/h 3.2 km/h 82 % 0.0 mm
00:20 18.0 °C 14.9 °C 1019.9 hPa Calm   3.2 km/h 82 % 0.0 mm
00:30 17.9 °C 14.8 °C 1019.9 hPa Calm     82 % 0.0 mm
00:40 17.6 °C 14.5 °C 1019.9 hPa Calm   1.6 km/h 82 % 0.0 mm
00:50 17.4 °C 14.3 °C 1019.9 hPa WSW 1.6 km/h 3.2 km/h 82 % 0.0 mm
01:00 17.3 °C 14.2 °C 1019.9 hPa WSW 1.6 km/h 3.2 km/h 82 % 0.0 mm
01:10 17.2 °C 14.3 °C 1019.9 hPa SW 1.6 km/h 3.2 km/h 83 % 0.0 mm
01:20 17.2 °C 14.3 °C 1019.9 hPa SW 1.6 km/h 3.2 km/h 83 % 0.0 mm
01:30 17.2 °C 14.3 °C 1019.9 hPa Calm   1.6 km/h 83 % 0.0 mm
01:40 17.3 °C 14.6 °C 1019.9 hPa Calm     84 % 0.0 mm
01:50 17.3 °C 14.6 °C 1019.9 hPa Calm     84 % 0.0 mm
02:00 17.0 °C 14.1 °C 1019.9 hPa Calm   3.2 km/h 83 % 0.0 mm
02:10 17.0 °C 14.3 °C 1019.9 hPa Calm     84 % 0.0 mm
02:20 16.6 °C 13.9 °C 1019.9 hPa WSW 1.6 km/h 3.2 km/h 84 % 0.0 mm
02:30 16.7 °C 14.0 °C 1018.8 hPa SW 1.6 km/h 3.2 km/h 84 % 0.0 mm
02:40 16.7 °C 14.2 °C 1018.8 hPa Calm   3.2 km/h 85 % 0.0 mm
02:50 17.0 °C 14.4 °C 1018.8 hPa Calm   3.2 km/h 85 % 0.0 mm
03:00 17.6 °C 15.2 °C 1019.9 hPa Calm   1.6 km/h 86 % 0.0 mm
03:10 18.4 °C 15.8 °C 1019.9 hPa Calm     85 % 0.0 mm
03:20 19.0 °C 16.1 °C 1019.9 hPa Calm   1.6 km/h 83 % 0.0 mm
03:30 19.9 °C 16.6 °C 1019.9 hPa Calm     81 % 0.0 mm
03:40 20.2 °C 16.4 °C 1019.9 hPa Calm     79 % 0.0 mm
03:50 20.2 °C 16.2 °C 1019.9 hPa NNW 1.6 km/h 1.6 km/h 78 % 0.0 mm
04:00 20.2 °C 16.1 °C 1019.9 hPa Calm     77 % 0.0 mm
04:10 20.3 °C 16.1 °C 1020.9 hPa West 1.6 km/h 1.6 km/h 77 % 0.0 mm
04:20 21.2 °C 16.8 °C 1020.9 hPa Calm   3.2 km/h 76 % 0.0 mm
04:30 21.1 °C 16.5 °C 1019.9 hPa SSW 1.6 km/h 3.2 km/h 75 % 0.0 mm
04:40 21.4 °C 16.6 °C 1019.9 hPa SW 1.6 km/h 3.2 km/h 74 % 0.0 mm
04:50 22.1 °C 16.8 °C 1019.9 hPa Calm   4.8 km/h 72 % 0.0 mm
05:00 22.6 °C 17.1 °C 1019.9 hPa NE 3.2 km/h 4.8 km/h 71 % 0.0 mm
05:10 23.3 °C 17.5 °C 1019.9 hPa NNE 3.2 km/h 4.8 km/h 70 % 0.0 mm
05:20 24.1 °C 17.6 °C 1019.9 hPa SSE 1.6 km/h 4.8 km/h 67 % 0.0 mm
10:23 23.6 °C 17.3 °C 1020.9 hPa ESE 5.6 km/h 5.6 km/h 68 % 0.0 mm
10:24 23.6 °C 17.3 °C 1020.9 hPa ESE 5.6 km/h 5.6 km/h 68 % 0.0 mm
10:29 24.0 °C 17.5 °C 1020.9 hPa NNW 3.9 km/h   67 % 0.0 mm
10:34 24.2 °C 17.4 °C 1020.9 hPa SE 3.7 km/h 3.7 km/h 66 % 0.0 mm
10:39 24.6 °C 18.1 °C 1019.9 hPa NE 3.9 km/h 3.9 km/h 67 % 0.0 mm
10:44 24.8 °C 18.0 °C 1019.9 hPa ENE 5.8 km/h 5.8 km/h 66 % 0.0 mm
10:49 24.9 °C 17.9 °C 1019.9 hPa SSE 1.9 km/h 1.9 km/h 65 % 0.0 mm
10:54 25.4 °C 18.1 °C 1019.9 hPa North 3.2 km/h   64 % 0.0 mm
10:59 26.0 °C 18.7 °C 1019.9 hPa SW 3.7 km/h 3.7 km/h 64 % 0.0 mm
11:04 26.4 °C 18.6 °C 1019.9 hPa SE 3.7 km/h 3.7 km/h 62 % 0.0 mm
11:09 26.5 °C 18.6 °C 1020.9 hPa NW 3.7 km/h 3.7 km/h 62 % 0.0 mm
11:14 26.9 °C 18.5 °C 1020.9 hPa SSE 5.6 km/h 5.6 km/h 60 % 0.0 mm
11:19 27.3 °C 18.6 °C 1020.9 hPa SSE 6.1 km/h 6.1 km/h 59 % 0.0 mm
11:24 27.2 °C 18.5 °C 1019.9 hPa SSW 7.4 km/h 7.4 km/h 59 % 0.0 mm
11:29 27.6 °C 18.6 °C 1019.9 hPa WNW 6.4 km/h 6.4 km/h 58 % 0.0 mm
11:34 27.8 °C 18.5 °C 1019.9 hPa SSE 1.9 km/h 1.9 km/h 57 % 0.0 mm
11:39 28.4 °C 18.2 °C 1019.9 hPa SSW 9.3 km/h 9.3 km/h 54 % 0.0 mm
11:44 28.1 °C 18.2 °C 1019.9 hPa South 9.3 km/h 9.3 km/h 55 % 0.0 mm
11:49 27.8 °C 17.7 °C 1019.9 hPa SSW 7.4 km/h 7.4 km/h 54 % 0.0 mm
11:54 27.8 °C 17.3 °C 1019.9 hPa WSW 9.3 km/h 9.3 km/h 53 % 0.0 mm
11:59 28.5 °C 17.7 °C 1019.9 hPa South 5.6 km/h 5.6 km/h 52 % 0.0 mm
12:04 28.9 °C 17.7 °C 1019.9 hPa WSW 6.4 km/h 6.4 km/h 51 % 0.0 mm
12:09 28.6 °C 17.4 °C 1019.9 hPa WSW 14.8 km/h 14.8 km/h 51 % 0.0 mm
12:14 28.9 °C 17.4 °C 1019.9 hPa SSW 6.9 km/h 6.9 km/h 50 % 0.0 mm
12:19 29.4 °C 17.6 °C 1019.9 hPa SSW 9.3 km/h 9.3 km/h 49 % 0.0 mm
12:24 29.3 °C 17.2 °C 1018.8 hPa SW 11.1 km/h 11.1 km/h 48 % 0.0 mm
12:29 29.0 °C 16.9 °C 1018.8 hPa SSW 7.4 km/h 7.4 km/h 48 % 0.0 mm
12:34 29.5 °C 17.0 °C 1018.8 hPa SW 7.4 km/h 7.4 km/h 47 % 0.0 mm
12:39 29.9 °C 17.0 °C 1019.9 hPa SSW 9.3 km/h 9.3 km/h 46 % 0.0 mm
12:44 30.1 °C 16.8 °C 1019.9 hPa SSE 5.0 km/h 5.0 km/h 45 % 0.0 mm
12:49 30.1 °C 17.2 °C 1019.9 hPa SSE 3.7 km/h 3.7 km/h 46 % 0.0 mm
12:54 30.0 °C 17.1 °C 1019.9 hPa South 7.4 km/h 7.4 km/h 46 % 0.0 mm
12:59 30.5 °C 17.2 °C 1019.9 hPa WSW 4.2 km/h 4.2 km/h 45 % 0.0 mm
13:04 30.1 °C 16.5 °C 1019.9 hPa SW 5.6 km/h 5.6 km/h 44 % 0.0 mm
13:06 30.3 °C 16.7 °C 1019.9 hPa West 5.6 km/h 5.6 km/h 44 % 0.0 mm
13:11 30.7 °C 17.1 °C 1018.8 hPa SSW 14.8 km/h 14.8 km/h 44 % 0.0 mm
13:16 31.0 °C 16.6 °C 1018.8 hPa WSW 5.0 km/h 5.0 km/h 42 % 0.0 mm
13:21 30.9 °C 16.9 °C 1018.8 hPa WSW 12.6 km/h 12.6 km/h 43 % 0.0 mm
13:26 30.1 °C 15.4 °C 1018.8 hPa SE 9.3 km/h 9.3 km/h 41 % 0.0 mm
13:31 31.0 °C 16.2 °C 1018.8 hPa SSW 5.6 km/h 5.6 km/h 41 % 0.0 mm
13:36 31.3 °C 16.5 °C 1018.8 hPa SW 6.4 km/h 6.4 km/h 41 % 0.0 mm
13:41 31.4 °C 16.6 °C 1018.8 hPa SW 9.0 km/h 9.0 km/h 41 % 0.0 mm
13:56 31.2 °C 16.0 °C 1019.9 hPa West 7.4 km/h 7.4 km/h 40 % 0.0 mm
14:01 31.3 °C 15.3 °C 1019.9 hPa SE 7.4 km/h 7.4 km/h 38 % 0.0 mm
14:06 31.7 °C 16.4 °C 1019.9 hPa WSW 9.3 km/h 9.3 km/h 40 % 0.0 mm
14:11 31.4 °C 16.2 °C 1018.8 hPa SW 5.6 km/h 5.6 km/h 40 % 0.0 mm
14:16 32.2 °C 16.9 °C 1018.8 hPa South 7.4 km/h 7.4 km/h 40 % 0.0 mm
14:21 32.2 °C 16.9 °C 1018.8 hPa WSW 7.4 km/h 7.4 km/h 40 % 0.0 mm
14:26 31.8 °C 16.9 °C 1018.8 hPa SW 13.0 km/h 13.0 km/h 41 % 0.0 mm
14:31 31.9 °C 17.0 °C 1018.8 hPa South 9.3 km/h 9.3 km/h 41 % 0.0 mm
14:36 32.2 °C 17.3 °C 1018.8 hPa WSW 7.2 km/h 7.2 km/h 41 % 0.0 mm
14:41 31.8 °C 16.9 °C 1018.8 hPa SSW 9.7 km/h 11.1 km/h 41 % 0.0 mm
14:46 31.3 °C 16.1 °C 1018.8 hPa SSE 11.1 km/h 11.1 km/h 40 % 0.0 mm
14:51 31.7 °C 16.8 °C 1018.8 hPa SSW 11.1 km/h 11.1 km/h 41 % 0.0 mm
14:56 31.9 °C 17.0 °C 1018.8 hPa SSE 13.0 km/h 13.0 km/h 41 % 0.0 mm
15:01 31.9 °C 17.0 °C 1018.8 hPa SW 9.3 km/h 9.3 km/h 41 % 0.0 mm
15:06 32.1 °C 16.4 °C 1018.8 hPa SW 5.8 km/h 5.8 km/h 39 % 0.0 mm
15:11 32.1 °C 16.8 °C 1018.8 hPa SSE 7.4 km/h 7.4 km/h 40 % 0.0 mm
15:16 32.2 °C 16.9 °C 1018.8 hPa South 11.1 km/h 11.1 km/h 40 % 0.0 mm
15:21 31.6 °C 15.9 °C 1018.8 hPa SW 7.4 km/h 7.4 km/h 39 % 0.0 mm
15:26 32.2 °C 16.9 °C 1017.8 hPa WNW 5.6 km/h 5.6 km/h 40 % 0.0 mm
15:31 32.3 °C 17.0 °C 1017.8 hPa SSW 5.6 km/h 6.1 km/h 40 % 0.0 mm
15:36 32.1 °C 16.4 °C 1017.8 hPa South 16.7 km/h 16.7 km/h 39 % 0.0 mm
15:41 31.8 °C 16.1 °C 1017.8 hPa SW 4.7 km/h 4.7 km/h 39 % 0.0 mm
15:46 31.7 °C 16.1 °C 1017.8 hPa ESE 9.3 km/h 9.3 km/h 39 % 0.0 mm
15:51 32.1 °C 16.4 °C 1017.8 hPa SSE 13.0 km/h 13.0 km/h 39 % 0.0 mm
15:56 31.9 °C 16.2 °C 1017.8 hPa SSW 11.1 km/h 11.1 km/h 39 % 0.0 mm
16:01 31.2 °C 15.2 °C 1017.8 hPa SW 11.1 km/h 11.1 km/h 38 % 0.0 mm
16:06 31.4 °C 15.8 °C 1017.8 hPa WSW 14.0 km/h 14.0 km/h 39 % 0.0 mm
16:11 31.2 °C 15.6 °C 1017.8 hPa SW 14.8 km/h 14.8 km/h 39 % 0.0 mm
16:16 31.2 °C 15.6 °C 1017.8 hPa SW 9.3 km/h 9.3 km/h 39 % 0.0 mm
16:21 31.1 °C 15.5 °C 1017.8 hPa SSW 13.0 km/h 13.0 km/h 39 % 0.0 mm
16:26 31.4 °C 15.8 °C 1016.8 hPa South 7.4 km/h 7.4 km/h 39 % 0.0 mm
16:31 31.6 °C 15.9 °C 1016.8 hPa SW 13.0 km/h 13.0 km/h 39 % 0.0 mm
16:36 31.3 °C 16.1 °C 1016.8 hPa South 9.3 km/h 9.3 km/h 40 % 0.0 mm
16:41 31.1 °C 15.5 °C 1017.8 hPa WSW 18.5 km/h 18.5 km/h 39 % 0.0 mm
16:46 31.0 °C 15.8 °C 1017.8 hPa WSW 9.3 km/h 9.3 km/h 40 % 0.0 mm
16:51 30.9 °C 16.1 °C 1017.8 hPa SW 13.0 km/h 13.0 km/h 41 % 0.0 mm
16:56 30.9 °C 16.1 °C 1017.8 hPa WSW 9.5 km/h 9.5 km/h 41 % 0.0 mm
17:01 30.9 °C 16.5 °C 1017.8 hPa SW 11.1 km/h 11.1 km/h 42 % 0.0 mm
17:06 30.8 °C 16.4 °C 1017.8 hPa South 16.7 km/h 16.7 km/h 42 % 0.0 mm
17:11 30.5 °C 16.1 °C 1017.8 hPa South 20.4 km/h 20.4 km/h 42 % 0.0 mm
17:16 30.2 °C 15.9 °C 1017.8 hPa SW 13.0 km/h 13.0 km/h 42 % 0.0 mm
17:21 30.6 °C 16.2 °C 1017.8 hPa SE 9.3 km/h 9.3 km/h 42 % 0.0 mm
17:26 30.2 °C 16.2 °C 1017.8 hPa SW 11.1 km/h 11.1 km/h 43 % 0.0 mm
17:31 30.5 °C 16.5 °C 1017.8 hPa SSW 11.9 km/h 11.9 km/h 43 % 0.0 mm
17:36 29.9 °C 16.3 °C 1017.8 hPa WSW 14.8 km/h 14.8 km/h 44 % 0.0 mm
17:41 29.9 °C 16.3 °C 1017.8 hPa SW 9.3 km/h 9.3 km/h 44 % 0.0 mm
17:46 29.9 °C 16.3 °C 1017.8 hPa SW 14.8 km/h 14.8 km/h 44 % 0.0 mm
17:51 29.7 °C 16.2 °C 1017.8 hPa SSW 13.0 km/h 13.0 km/h 44 % 0.0 mm
17:56 29.9 °C 16.3 °C 1017.8 hPa SSW 14.8 km/h 14.8 km/h 44 % 0.0 mm
18:01 29.9 °C 16.7 °C 1017.8 hPa WSW 9.7 km/h 9.7 km/h 45 % 0.0 mm
18:06 29.7 °C 16.5 °C 1017.8 hPa West 10.0 km/h 10.0 km/h 45 % 0.0 mm
18:11 29.4 °C 16.6 °C 1017.8 hPa SSW 11.1 km/h 11.1 km/h 46 % 0.0 mm
18:16 29.3 °C 16.5 °C 1017.8 hPa South 13.0 km/h 13.0 km/h 46 % 0.0 mm
18:21 29.0 °C 16.6 °C 1017.8 hPa South 9.3 km/h 9.3 km/h 47 % 0.0 mm
18:26 28.9 °C 16.8 °C 1017.8 hPa South 13.0 km/h 13.0 km/h 48 % 0.0 mm
18:31 29.1 °C 16.6 °C 1017.8 hPa SW 13.0 km/h 13.0 km/h 47 % 0.0 mm
18:36 28.7 °C 16.9 °C 1017.8 hPa South 20.4 km/h 20.4 km/h 49 % 0.0 mm
18:41 28.7 °C 16.9 °C 1017.8 hPa SW 7.4 km/h 8.7 km/h 49 % 0.0 mm
18:46 28.5 °C 16.7 °C 1017.8 hPa SW 15.6 km/h 15.6 km/h 49 % 0.0 mm
18:51 28.3 °C 16.6 °C 1017.8 hPa SW 11.1 km/h 11.1 km/h 49 % 0.0 mm
18:56 28.1 °C 16.4 °C 1017.8 hPa SW 13.0 km/h 13.0 km/h 49 % 0.0 mm
19:01 27.9 °C 16.5 °C 1017.8 hPa South 9.3 km/h 9.3 km/h 50 % 0.0 mm
19:06 27.9 °C 16.5 °C 1017.8 hPa SW 16.4 km/h 16.4 km/h 50 % 0.0 mm
19:11 27.6 °C 16.6 °C 1017.8 hPa SW 9.3 km/h 9.3 km/h 51 % 0.0 mm
19:16 27.3 °C 16.3 °C 1017.8 hPa WSW 16.7 km/h 16.7 km/h 51 % 0.0 mm
19:21 27.1 °C 16.4 °C 1017.8 hPa SSW 11.1 km/h 11.1 km/h 52 % 0.0 mm
19:26 26.9 °C 16.5 °C 1017.8 hPa WNW 9.3 km/h 9.3 km/h 53 % 0.0 mm
19:31 26.7 °C 16.3 °C 1017.8 hPa SSW 14.0 km/h 14.0 km/h 53 % 0.0 mm
19:36 26.5 °C 16.4 °C 1017.8 hPa SW 13.0 km/h 13.0 km/h 54 % 0.0 mm
19:41 26.4 °C 16.3 °C 1017.8 hPa SW 7.4 km/h 7.4 km/h 54 % 0.0 mm
19:46 26.2 °C 16.4 °C 1017.8 hPa West 16.7 km/h 16.7 km/h 55 % 0.0 mm
19:51 26.1 °C 16.3 °C 1017.8 hPa SW 13.0 km/h 13.0 km/h 55 % 0.0 mm
19:56 26.0 °C 16.6 °C 1017.8 hPa SW 11.1 km/h 11.1 km/h 56 % 0.0 mm
20:01 25.7 °C 16.3 °C 1017.8 hPa WSW 18.5 km/h 18.5 km/h 56 % 0.0 mm
20:06 25.6 °C 16.4 °C 1017.8 hPa SSW 9.3 km/h 9.3 km/h 57 % 0.0 mm
20:11 25.5 °C 16.3 °C 1017.8 hPa SSW 9.3 km/h 9.3 km/h 57 % 0.0 mm
20:16 25.3 °C 16.2 °C 1017.8 hPa WSW 9.3 km/h 9.3 km/h 57 % 0.0 mm
20:21 25.2 °C 16.1 °C 1017.8 hPa WSW 9.0 km/h 9.0 km/h 57 % 0.0 mm
20:26 25.1 °C 16.3 °C 1017.8 hPa West 9.3 km/h 9.3 km/h 58 % 0.0 mm
20:31 24.9 °C 16.3 °C 1017.8 hPa South 13.0 km/h 13.0 km/h 59 % 0.0 mm
20:36 24.8 °C 16.5 °C 1017.8 hPa WSW 7.4 km/h 7.4 km/h 60 % 0.0 mm
20:41 24.7 °C 16.4 °C 1017.8 hPa WSW 11.1 km/h 11.1 km/h 60 % 0.0 mm
20:46 24.6 °C 16.3 °C 1017.8 hPa West 9.3 km/h 9.3 km/h 60 % 0.0 mm
20:51 24.5 °C 16.2 °C 1017.8 hPa SW 5.6 km/h 5.6 km/h 60 % 0.0 mm
20:56 24.4 °C 16.4 °C 1018.8 hPa West 5.6 km/h 5.6 km/h 61 % 0.0 mm
21:01 24.3 °C 16.6 °C 1018.8 hPa WSW 4.7 km/h 4.7 km/h 62 % 0.0 mm
21:06 24.2 °C 16.2 °C 1018.8 hPa WSW 3.7 km/h 4.7 km/h 61 % 0.0 mm
21:11 24.1 °C 16.4 °C 1018.8 hPa SSE 3.7 km/h 3.7 km/h 62 % 0.0 mm
21:16 24.0 °C 16.3 °C 1018.8 hPa SW 6.1 km/h 6.1 km/h 62 % 0.0 mm
21:21 24.0 °C 16.3 °C 1018.8 hPa SSW 9.3 km/h 9.3 km/h 62 % 0.0 mm
21:26 23.9 °C 16.7 °C 1019.9 hPa SW 3.7 km/h 3.7 km/h 64 % 0.0 mm
21:30 21.8 °C 18.4 °C 1019.9 hPa SW 3.2 km/h 3.2 km/h 81 % 0.0 mm
21:31 23.8 °C 16.6 °C 1019.9 hPa SW 4.2 km/h 4.2 km/h 64 % 0.0 mm
21:36 23.7 °C 16.7 °C 1019.9 hPa South 3.7 km/h 3.7 km/h 65 % 0.0 mm
21:40 21.7 °C 18.5 °C 1019.9 hPa WSW 1.6 km/h 4.8 km/h 82 % 0.0 mm
21:41 23.7 °C 16.7 °C 1019.9 hPa SSW 5.6 km/h 5.6 km/h 65 % 0.0 mm
21:42 23.6 °C 16.9 °C 1019.9 hPa WSW 5.6 km/h 5.6 km/h 66 % 0.0 mm
21:47 23.6 °C 17.1 °C 1019.9 hPa SW 4.7 km/h 4.7 km/h 67 % 0.0 mm
21:50 21.5 °C 18.3 °C 1019.9 hPa WSW 3.2 km/h 4.8 km/h 82 % 0.0 mm
21:52 23.5 °C 17.0 °C 1019.9 hPa SSW 7.4 km/h 7.4 km/h 67 % 0.0 mm
21:57 23.4 °C 17.2 °C 1019.9 hPa SW 3.9 km/h   68 % 0.0 mm
22:00 21.5 °C 18.3 °C 1019.9 hPa WSW 3.2 km/h 4.8 km/h 82 % 0.0 mm
22:02 23.3 °C 17.1 °C 1019.9 hPa WSW 3.7 km/h 3.7 km/h 68 % 0.0 mm
22:07 23.3 °C 17.1 °C 1019.9 hPa SW 3.7 km/h 3.7 km/h 68 % 0.0 mm
22:10 21.5 °C 18.3 °C 1019.9 hPa West 3.2 km/h 4.8 km/h 82 % 0.0 mm
22:12 23.3 °C 17.3 °C 1019.9 hPa SW 5.6 km/h 5.6 km/h 69 % 0.0 mm
22:17 23.2 °C 17.2 °C 1019.9 hPa SW 3.7 km/h 3.7 km/h 69 % 0.0 mm
22:20 21.4 °C 18.6 °C 1019.9 hPa Calm   3.2 km/h 84 % 0.0 mm
22:22 23.1 °C 17.3 °C 1019.9 hPa SW 3.7 km/h 3.9 km/h 70 % 0.0 mm
22:27 23.1 °C 17.3 °C 1019.9 hPa SSW 5.6 km/h 5.6 km/h 70 % 0.0 mm
22:30 21.4 °C 18.6 °C 1018.8 hPa West 1.6 km/h 3.2 km/h 84 % 0.0 mm
22:32 23.1 °C 17.6 °C 1019.9 hPa WSW 3.7 km/h 3.7 km/h 71 % 0.0 mm
22:37 23.1 °C 17.6 °C 1019.9 hPa SW 1.9 km/h 1.9 km/h 71 % 0.0 mm
22:40 21.4 °C 18.6 °C 1019.9 hPa Calm   3.2 km/h 84 % 0.0 mm
22:42 23.0 °C 17.4 °C 1019.9 hPa West 3.7 km/h 3.7 km/h 71 % 0.0 mm
22:47 23.0 °C 17.7 °C 1019.9 hPa WNW 2.3 km/h 2.3 km/h 72 % 0.0 mm
22:50 21.3 °C 18.5 °C 1019.9 hPa Calm   1.6 km/h 84 % 0.0 mm
22:52 23.0 °C 17.7 °C 1019.9 hPa WSW 3.2 km/h 3.2 km/h 72 % 0.0 mm
22:57 23.0 °C 17.7 °C 1018.8 hPa WSW 3.7 km/h 3.7 km/h 72 % 0.0 mm
23:00 21.2 °C 18.4 °C 1019.9 hPa Calm     84 % 0.0 mm
23:02 22.9 °C 17.8 °C 1018.8 hPa WSW 3.7 km/h 3.7 km/h 73 % 0.0 mm
23:07 22.9 °C 17.6 °C 1018.8 hPa WSW 3.7 km/h 3.9 km/h 72 % 0.0 mm
23:10 21.0 °C 18.4 °C 1019.9 hPa Calm   3.2 km/h 85 % 0.0 mm
23:12 22.9 °C 17.8 °C 1019.9 hPa WSW 3.7 km/h 3.7 km/h 73 % 0.0 mm
23:17 22.8 °C 17.7 °C 1019.9 hPa WSW 3.7 km/h 3.7 km/h 73 % 0.0 mm
23:20 20.9 °C 18.3 °C 1019.9 hPa ESE 1.6 km/h 1.6 km/h 85 % 0.0 mm
23:22 22.8 °C 17.7 °C 1019.9 hPa WSW 3.7 km/h 3.7 km/h 73 % 0.0 mm
23:27 22.8 °C 17.9 °C 1019.9 hPa WSW 3.7 km/h 3.7 km/h 74 % 0.0 mm
23:30 20.7 °C 18.1 °C 1019.9 hPa Calm   3.2 km/h 85 % 0.0 mm
23:32 22.7 °C 17.8 °C 1019.9 hPa WSW 3.7 km/h 3.7 km/h 74 % 0.0 mm
23:37 22.7 °C 17.8 °C 1019.9 hPa WSW 3.7 km/h 3.7 km/h 74 % 0.0 mm
23:40 20.8 °C 18.4 °C 1019.9 hPa Calm     86 % 0.0 mm
23:42 22.7 °C 17.8 °C 1019.9 hPa West 3.7 km/h 3.7 km/h 74 % 0.0 mm
23:47 22.7 °C 18.1 °C 1019.9 hPa West 1.9 km/h 1.9 km/h 75 % 0.0 mm
23:50 20.8 °C 18.4 °C 1019.9 hPa Calm     86 % 0.0 mm
23:52 22.7 °C 18.1 °C 1019.9 hPa West 3.7 km/h 3.7 km/h 75 % 0.0 mm
23:57 22.7 °C 18.1 °C 1019.9 hPa SW 3.7 km/h 3.7 km/h 75 % 0.0 mm
Meteo Sesrovires
Elogis d' Weather Underground - 3.5 mb

Guio original per  Jim McMurry - jmcmurry@mwt.net Adaptat per a la plantilla per  Wim van der Kuil - Leuven-Template.eu

Trobareu la nostra informacio del temps tambe a:

Weather Underground

AWEKAS